KFBL/FBL METAR and TAF weather

Enter ICAO airport designator
Station Type Date Time Source
KFBL METAR 2022/01/19 19:35 UTC NOAA

KFBL 191935Z AUTO 30012G18KT 10SM CLR M16/M21 A3038 RMK AO2


Station Type Date Time Source
KFBL Decoded METAR 2022/01/19 19:35 UTC NOAA

Faribault, Faribault Municipal Airport, MN, United States (KFBL) 44-20N 093-19W
Jan 19, 2022 - 02:35 PM EST / 2022.01.19 1935 UTC
Wind: from the WNW (300 degrees) at 14 MPH (12 KT) gusting to 21 MPH (18 KT):0
Visibility: 10 mile(s):0
Sky conditions: clear
Temperature: 3 F (-16 C)
Windchill: -14 F (-26 C):2
Dew Point: -5 F (-21 C)
Relative Humidity: 65%
Pressure (altimeter): 30.38 in. Hg (1028 hPa)
ob: KFBL 191935Z AUTO 30012G18KT 10SM CLR M16/M21 A3038 RMK AO2
cycle: 19

Station Type Date Time Source
KFBL TAF UTC NOAA

Error!

Example: see airport list